sensor_id;sensor_type;location;lat;lon;timestamp;P1;durP1;ratioP1;P2;durP2;ratioP2
59518;SDS011;46994;54.976;73.404;2022-09-03T00:02:19;12.48;;;5.90;;
59518;SDS011;46994;54.976;73.404;2022-09-03T00:05:11;8.43;;;5.03;;
59518;SDS011;46994;54.976;73.404;2022-09-03T00:07:52;10.25;;;5.88;;
59518;SDS011;46994;54.976;73.404;2022-09-03T00:10:52;10.82;;;5.22;;
59518;SDS011;46994;54.976;73.404;2022-09-03T00:13:26;25.58;;;5.63;;
59518;SDS011;46994;54.976;73.404;2022-09-03T00:18:29;19.35;;;5.88;;
59518;SDS011;46994;54.976;73.404;2022-09-03T00:21:03;12.32;;;4.88;;
59518;SDS011;46994;54.976;73.404;2022-09-03T00:23:36;16.90;;;5.63;;
59518;SDS011;46994;54.976;73.404;2022-09-03T00:28:43;8.50;;;5.05;;
59518;SDS011;46994;54.976;73.404;2022-09-03T00:31:17;14.00;;;4.88;;
59518;SDS011;46994;54.976;73.404;2022-09-03T00:36:19;14.05;;;5.20;;
59518;SDS011;46994;54.976;73.404;2022-09-03T00:38:57;8.02;;;5.65;;
59518;SDS011;46994;54.976;73.404;2022-09-03T00:46:52;17.85;;;5.60;;
59518;SDS011;46994;54.976;73.404;2022-09-03T00:49:39;16.35;;;5.72;;
59518;SDS011;46994;54.976;73.404;2022-09-03T00:52:30;16.27;;;5.78;;
59518;SDS011;46994;54.976;73.404;2022-09-03T00:58:05;14.65;;;5.35;;
59518;SDS011;46994;54.976;73.404;2022-09-03T01:00:46;10.10;;;5.80;;
59518;SDS011;46994;54.976;73.404;2022-09-03T01:11:26;12.13;;;5.15;;
59518;SDS011;46994;54.976;73.404;2022-09-03T01:25:25;14.27;;;5.78;;
59518;SDS011;46994;54.976;73.404;2022-09-03T01:31:15;17.30;;;5.60;;
59518;SDS011;46994;54.976;73.404;2022-09-03T01:39:08;17.67;;;5.55;;
59518;SDS011;46994;54.976;73.404;2022-09-03T01:41:49;18.02;;;6.88;;
59518;SDS011;46994;54.976;73.404;2022-09-03T01:59:00;28.45;;;11.02;;
59518;SDS011;46994;54.976;73.404;2022-09-03T02:02:19;28.97;;;12.33;;
59518;SDS011;46994;54.976;73.404;2022-09-03T02:04:58;26.33;;;13.48;;
59518;SDS011;46994;54.976;73.404;2022-09-03T02:07:56;27.88;;;16.25;;
59518;SDS011;46994;54.976;73.404;2022-09-03T02:10:21;27.45;;;15.05;;
59518;SDS011;46994;54.976;73.404;2022-09-03T02:13:09;30.98;;;16.05;;
59518;SDS011;46994;54.976;73.404;2022-09-03T02:15:42;26.88;;;16.13;;
59518;SDS011;46994;54.976;73.404;2022-09-03T02:18:18;28.38;;;16.55;;
59518;SDS011;46994;54.976;73.404;2022-09-03T02:20:56;29.83;;;16.13;;
59518;SDS011;46994;54.976;73.404;2022-09-03T02:23:25;46.65;;;11.88;;
59518;SDS011;46994;54.976;73.404;2022-09-03T02:25:57;29.65;;;15.10;;
59518;SDS011;46994;54.976;73.404;2022-09-03T02:28:27;30.67;;;13.50;;
59518;SDS011;46994;54.976;73.404;2022-09-03T02:30:55;28.92;;;13.40;;
59518;SDS011;46994;54.976;73.404;2022-09-03T02:33:22;40.03;;;14.45;;
59518;SDS011;46994;54.976;73.404;2022-09-03T02:35:49;39.13;;;12.68;;
59518;SDS011;46994;54.976;73.404;2022-09-03T02:38:21;30.02;;;8.50;;
59518;SDS011;46994;54.976;73.404;2022-09-03T02:40:50;29.08;;;8.95;;
59518;SDS011;46994;54.976;73.404;2022-09-03T02:43:21;27.65;;;12.05;;
59518;SDS011;46994;54.976;73.404;2022-09-03T02:45:58;44.60;;;10.32;;
59518;SDS011;46994;54.976;73.404;2022-09-03T02:48:27;23.13;;;10.30;;
59518;SDS011;46994;54.976;73.404;2022-09-03T02:50:54;27.45;;;10.50;;
59518;SDS011;46994;54.976;73.404;2022-09-03T02:53:21;22.33;;;11.27;;
59518;SDS011;46994;54.976;73.404;2022-09-03T02:55:47;25.63;;;14.40;;
59518;SDS011;46994;54.976;73.404;2022-09-03T02:58:14;32.08;;;16.80;;
59518;SDS011;46994;54.976;73.404;2022-09-03T03:00:41;28.50;;;17.50;;
59518;SDS011;46994;54.976;73.404;2022-09-03T03:03:08;40.10;;;17.58;;
59518;SDS011;46994;54.976;73.404;2022-09-03T03:05:45;37.58;;;17.15;;
59518;SDS011;46994;54.976;73.404;2022-09-03T03:08:12;39.10;;;15.45;;
59518;SDS011;46994;54.976;73.404;2022-09-03T03:10:46;36.15;;;17.88;;
59518;SDS011;46994;54.976;73.404;2022-09-03T03:13:14;35.53;;;19.23;;
59518;SDS011;46994;54.976;73.404;2022-09-03T03:15:41;57.22;;;19.27;;
59518;SDS011;46994;54.976;73.404;2022-09-03T03:18:09;44.78;;;17.83;;
59518;SDS011;46994;54.976;73.404;2022-09-03T03:20:39;62.63;;;29.85;;
59518;SDS011;46994;54.976;73.404;2022-09-03T03:23:07;64.22;;;29.92;;
59518;SDS011;46994;54.976;73.404;2022-09-03T03:25:35;39.60;;;12.98;;
59518;SDS011;46994;54.976;73.404;2022-09-03T03:28:04;41.22;;;25.67;;
59518;SDS011;46994;54.976;73.404;2022-09-03T03:30:31;42.75;;;23.77;;
59518;SDS011;46994;54.976;73.404;2022-09-03T03:32:59;42.92;;;14.65;;
59518;SDS011;46994;54.976;73.404;2022-09-03T03:35:26;37.45;;;13.18;;
59518;SDS011;46994;54.976;73.404;2022-09-03T03:37:53;31.15;;;18.30;;
59518;SDS011;46994;54.976;73.404;2022-09-03T03:40:21;34.85;;;16.42;;
59518;SDS011;46994;54.976;73.404;2022-09-03T03:42:47;32.20;;;12.48;;
59518;SDS011;46994;54.976;73.404;2022-09-03T03:45:15;28.23;;;14.80;;
59518;SDS011;46994;54.976;73.404;2022-09-03T03:47:42;48.75;;;16.85;;
59518;SDS011;46994;54.976;73.404;2022-09-03T03:50:09;40.38;;;16.42;;
59518;SDS011;46994;54.976;73.404;2022-09-03T03:52:35;35.88;;;12.13;;
59518;SDS011;46994;54.976;73.404;2022-09-03T03:55:02;44.20;;;14.52;;
59518;SDS011;46994;54.976;73.404;2022-09-03T03:57:29;34.85;;;8.75;;
59518;SDS011;46994;54.976;73.404;2022-09-03T03:59:57;36.67;;;10.82;;
59518;SDS011;46994;54.976;73.404;2022-09-03T04:02:24;59.90;;;14.80;;
59518;SDS011;46994;54.976;73.404;2022-09-03T04:04:51;47.83;;;10.57;;
59518;SDS011;46994;54.976;73.404;2022-09-03T04:07:17;47.42;;;14.90;;
59518;SDS011;46994;54.976;73.404;2022-09-03T04:09:44;67.40;;;9.50;;
59518;SDS011;46994;54.976;73.404;2022-09-03T04:12:12;48.25;;;12.88;;
59518;SDS011;46994;54.976;73.404;2022-09-03T04:14:39;45.30;;;12.40;;
59518;SDS011;46994;54.976;73.404;2022-09-03T04:17:08;52.05;;;13.00;;
59518;SDS011;46994;54.976;73.404;2022-09-03T04:19:35;41.08;;;11.43;;
59518;SDS011;46994;54.976;73.404;2022-09-03T04:22:04;61.15;;;9.88;;
59518;SDS011;46994;54.976;73.404;2022-09-03T04:24:31;36.67;;;11.05;;
59518;SDS011;46994;54.976;73.404;2022-09-03T04:26:59;69.55;;;10.65;;
59518;SDS011;46994;54.976;73.404;2022-09-03T04:29:26;42.05;;;10.73;;
59518;SDS011;46994;54.976;73.404;2022-09-03T04:31:56;49.42;;;9.40;;
59518;SDS011;46994;54.976;73.404;2022-09-03T04:34:53;186.70;;;12.95;;
59518;SDS011;46994;54.976;73.404;2022-09-03T04:37:20;33.15;;;10.40;;
59518;SDS011;46994;54.976;73.404;2022-09-03T04:39:47;68.18;;;11.05;;
59518;SDS011;46994;54.976;73.404;2022-09-03T04:42:14;36.30;;;9.55;;
59518;SDS011;46994;54.976;73.404;2022-09-03T04:44:40;31.00;;;10.43;;
59518;SDS011;46994;54.976;73.404;2022-09-03T04:47:07;48.65;;;10.27;;
59518;SDS011;46994;54.976;73.404;2022-09-03T04:49:34;56.00;;;9.57;;
59518;SDS011;46994;54.976;73.404;2022-09-03T04:52:01;31.70;;;9.57;;
59518;SDS011;46994;54.976;73.404;2022-09-03T04:54:28;41.97;;;10.10;;
59518;SDS011;46994;54.976;73.404;2022-09-03T04:56:55;50.08;;;9.70;;
59518;SDS011;46994;54.976;73.404;2022-09-03T04:59:22;33.80;;;9.57;;
59518;SDS011;46994;54.976;73.404;2022-09-03T05:01:49;45.92;;;10.60;;
59518;SDS011;46994;54.976;73.404;2022-09-03T05:04:18;40.90;;;10.15;;
59518;SDS011;46994;54.976;73.404;2022-09-03T05:06:45;70.68;;;10.13;;
59518;SDS011;46994;54.976;73.404;2022-09-03T05:09:12;60.85;;;9.88;;
59518;SDS011;46994;54.976;73.404;2022-09-03T05:11:39;70.05;;;9.80;;
59518;SDS011;46994;54.976;73.404;2022-09-03T05:14:08;74.25;;;10.00;;
59518;SDS011;46994;54.976;73.404;2022-09-03T05:16:38;44.60;;;10.30;;
59518;SDS011;46994;54.976;73.404;2022-09-03T05:19:05;85.82;;;9.43;;
59518;SDS011;46994;54.976;73.404;2022-09-03T05:21:33;41.47;;;10.32;;
59518;SDS011;46994;54.976;73.404;2022-09-03T05:24:02;91.82;;;11.05;;
59518;SDS011;46994;54.976;73.404;2022-09-03T05:26:31;50.72;;;10.25;;
59518;SDS011;46994;54.976;73.404;2022-09-03T05:29:03;54.97;;;10.75;;
59518;SDS011;46994;54.976;73.404;2022-09-03T05:31:35;57.03;;;11.27;;
59518;SDS011;46994;54.976;73.404;2022-09-03T05:34:04;47.25;;;11.30;;
59518;SDS011;46994;54.976;73.404;2022-09-03T05:36:33;51.20;;;11.25;;
59518;SDS011;46994;54.976;73.404;2022-09-03T05:39:02;38.47;;;11.38;;
59518;SDS011;46994;54.976;73.404;2022-09-03T05:41:30;51.75;;;12.43;;
59518;SDS011;46994;54.976;73.404;2022-09-03T05:43:59;47.75;;;11.85;;
59518;SDS011;46994;54.976;73.404;2022-09-03T05:46:26;35.97;;;10.65;;
59518;SDS011;46994;54.976;73.404;2022-09-03T05:48:59;80.70;;;11.00;;
59518;SDS011;46994;54.976;73.404;2022-09-03T05:51:27;42.55;;;10.25;;
59518;SDS011;46994;54.976;73.404;2022-09-03T05:53:55;65.20;;;8.75;;
59518;SDS011;46994;54.976;73.404;2022-09-03T05:56:23;28.08;;;9.25;;
59518;SDS011;46994;54.976;73.404;2022-09-03T05:58:52;64.00;;;10.60;;
59518;SDS011;46994;54.976;73.404;2022-09-03T06:01:24;47.80;;;9.10;;
59518;SDS011;46994;54.976;73.404;2022-09-03T06:03:53;84.75;;;9.27;;
59518;SDS011;46994;54.976;73.404;2022-09-03T06:06:25;40.38;;;9.63;;
59518;SDS011;46994;54.976;73.404;2022-09-03T06:08:57;37.70;;;9.82;;
59518;SDS011;46994;54.976;73.404;2022-09-03T06:11:25;34.22;;;8.98;;
59518;SDS011;46994;54.976;73.404;2022-09-03T06:13:55;37.38;;;9.40;;
59518;SDS011;46994;54.976;73.404;2022-09-03T06:16:22;41.25;;;7.82;;
59518;SDS011;46994;54.976;73.404;2022-09-03T06:18:50;31.40;;;8.27;;
59518;SDS011;46994;54.976;73.404;2022-09-03T06:21:18;37.75;;;9.07;;
59518;SDS011;46994;54.976;73.404;2022-09-03T06:23:49;45.63;;;9.25;;
59518;SDS011;46994;54.976;73.404;2022-09-03T06:26:17;37.63;;;8.73;;
59518;SDS011;46994;54.976;73.404;2022-09-03T06:28:45;31.08;;;7.65;;
59518;SDS011;46994;54.976;73.404;2022-09-03T06:31:14;35.70;;;8.43;;
59518;SDS011;46994;54.976;73.404;2022-09-03T06:33:43;51.03;;;15.88;;
59518;SDS011;46994;54.976;73.404;2022-09-03T06:36:13;66.30;;;23.23;;
59518;SDS011;46994;54.976;73.404;2022-09-03T06:38:41;73.00;;;21.23;;
59518;SDS011;46994;54.976;73.404;2022-09-03T06:41:10;46.45;;;17.75;;
59518;SDS011;46994;54.976;73.404;2022-09-03T06:43:46;67.10;;;12.05;;
59518;SDS011;46994;54.976;73.404;2022-09-03T06:46:15;47.20;;;14.90;;
59518;SDS011;46994;54.976;73.404;2022-09-03T06:48:43;39.20;;;15.75;;
59518;SDS011;46994;54.976;73.404;2022-09-03T06:51:12;49.03;;;15.27;;
59518;SDS011;46994;54.976;73.404;2022-09-03T06:53:45;75.10;;;12.02;;
59518;SDS011;46994;54.976;73.404;2022-09-03T06:56:15;65.78;;;12.75;;
59518;SDS011;46994;54.976;73.404;2022-09-03T06:58:44;62.20;;;10.20;;
59518;SDS011;46994;54.976;73.404;2022-09-03T07:01:17;54.35;;;9.68;;
59518;SDS011;46994;54.976;73.404;2022-09-03T07:03:56;39.80;;;11.27;;
59518;SDS011;46994;54.976;73.404;2022-09-03T07:06:30;48.72;;;11.93;;
59518;SDS011;46994;54.976;73.404;2022-09-03T07:09:05;55.03;;;10.63;;
59518;SDS011;46994;54.976;73.404;2022-09-03T07:11:33;42.28;;;11.48;;
59518;SDS011;46994;54.976;73.404;2022-09-03T07:14:02;35.92;;;12.43;;
59518;SDS011;46994;54.976;73.404;2022-09-03T07:16:32;68.30;;;8.18;;
59518;SDS011;46994;54.976;73.404;2022-09-03T07:19:00;52.15;;;9.95;;
59518;SDS011;46994;54.976;73.404;2022-09-03T07:21:30;41.78;;;9.15;;
59518;SDS011;46994;54.976;73.404;2022-09-03T07:24:02;44.78;;;8.80;;
59518;SDS011;46994;54.976;73.404;2022-09-03T07:26:31;55.97;;;10.50;;
59518;SDS011;46994;54.976;73.404;2022-09-03T07:29:01;67.13;;;8.52;;
59518;SDS011;46994;54.976;73.404;2022-09-03T07:31:31;40.20;;;8.23;;
59518;SDS011;46994;54.976;73.404;2022-09-03T07:34:01;41.13;;;10.10;;
59518;SDS011;46994;54.976;73.404;2022-09-03T07:36:35;51.55;;;7.65;;
59518;SDS011;46994;54.976;73.404;2022-09-03T07:39:08;28.48;;;10.48;;
59518;SDS011;46994;54.976;73.404;2022-09-03T07:41:36;59.92;;;7.53;;
59518;SDS011;46994;54.976;73.404;2022-09-03T07:44:03;55.72;;;7.82;;
59518;SDS011;46994;54.976;73.404;2022-09-03T07:46:34;50.65;;;6.75;;
59518;SDS011;46994;54.976;73.404;2022-09-03T07:49:03;62.10;;;7.70;;
59518;SDS011;46994;54.976;73.404;2022-09-03T07:51:32;77.32;;;9.27;;
59518;SDS011;46994;54.976;73.404;2022-09-03T07:54:01;54.45;;;7.47;;
59518;SDS011;46994;54.976;73.404;2022-09-03T07:56:33;36.97;;;8.02;;
59518;SDS011;46994;54.976;73.404;2022-09-03T07:59:01;67.90;;;8.82;;
59518;SDS011;46994;54.976;73.404;2022-09-03T08:01:29;58.95;;;8.27;;
59518;SDS011;46994;54.976;73.404;2022-09-03T08:03:57;46.33;;;7.05;;
59518;SDS011;46994;54.976;73.404;2022-09-03T08:06:26;46.25;;;8.23;;
59518;SDS011;46994;54.976;73.404;2022-09-03T08:09:04;56.38;;;9.10;;
59518;SDS011;46994;54.976;73.404;2022-09-03T08:11:35;21.60;;;8.55;;
59518;SDS011;46994;54.976;73.404;2022-09-03T08:14:04;45.38;;;7.75;;
59518;SDS011;46994;54.976;73.404;2022-09-03T08:16:33;41.70;;;7.85;;
59518;SDS011;46994;54.976;73.404;2022-09-03T08:19:04;37.53;;;7.50;;
59518;SDS011;46994;54.976;73.404;2022-09-03T08:21:32;46.55;;;7.88;;
59518;SDS011;46994;54.976;73.404;2022-09-03T08:23:59;41.40;;;7.18;;
59518;SDS011;46994;54.976;73.404;2022-09-03T08:26:30;31.65;;;7.97;;
59518;SDS011;46994;54.976;73.404;2022-09-03T08:28:58;38.95;;;8.68;;
59518;SDS011;46994;54.976;73.404;2022-09-03T08:31:25;39.85;;;8.95;;
59518;SDS011;46994;54.976;73.404;2022-09-03T08:33:54;40.63;;;8.52;;
59518;SDS011;46994;54.976;73.404;2022-09-03T08:36:26;39.38;;;10.20;;
59518;SDS011;46994;54.976;73.404;2022-09-03T08:39:00;38.28;;;9.50;;
59518;SDS011;46994;54.976;73.404;2022-09-03T08:44:33;33.85;;;10.38;;
59518;SDS011;46994;54.976;73.404;2022-09-03T08:53:10;67.30;;;9.85;;
59518;SDS011;46994;54.976;73.404;2022-09-03T09:03:39;38.65;;;8.93;;
59518;SDS011;46994;54.976;73.404;2022-09-03T09:14:10;34.85;;;7.20;;
59518;SDS011;46994;54.976;73.404;2022-09-03T09:16:57;49.77;;;7.93;;
59518;SDS011;46994;54.976;73.404;2022-09-03T09:22:25;41.53;;;8.88;;
59518;SDS011;46994;54.976;73.404;2022-09-03T09:25:00;67.53;;;9.82;;
59518;SDS011;46994;54.976;73.404;2022-09-03T09:27:34;81.88;;;12.70;;
59518;SDS011;46994;54.976;73.404;2022-09-03T09:30:03;73.50;;;13.80;;
59518;SDS011;46994;54.976;73.404;2022-09-03T09:32:30;77.35;;;12.30;;
59518;SDS011;46994;54.976;73.404;2022-09-03T09:34:59;106.63;;;13.80;;
59518;SDS011;46994;54.976;73.404;2022-09-03T09:37:25;36.65;;;9.32;;
59518;SDS011;46994;54.976;73.404;2022-09-03T09:39:53;47.05;;;11.20;;
59518;SDS011;46994;54.976;73.404;2022-09-03T09:42:22;48.40;;;10.07;;
59518;SDS011;46994;54.976;73.404;2022-09-03T09:44:49;59.75;;;10.32;;
59518;SDS011;46994;54.976;73.404;2022-09-03T09:47:21;89.78;;;11.65;;
59518;SDS011;46994;54.976;73.404;2022-09-03T09:49:54;77.90;;;11.32;;
59518;SDS011;46994;54.976;73.404;2022-09-03T09:52:24;65.32;;;12.18;;
59518;SDS011;46994;54.976;73.404;2022-09-03T09:55:04;82.60;;;12.02;;
59518;SDS011;46994;54.976;73.404;2022-09-03T09:57:44;75.15;;;12.23;;
59518;SDS011;46994;54.976;73.404;2022-09-03T10:00:18;63.63;;;11.32;;
59518;SDS011;46994;54.976;73.404;2022-09-03T10:05:27;62.58;;;12.35;;
59518;SDS011;46994;54.976;73.404;2022-09-03T10:10:26;77.88;;;12.43;;
59518;SDS011;46994;54.976;73.404;2022-09-03T10:15:41;70.18;;;12.38;;
59518;SDS011;46994;54.976;73.404;2022-09-03T10:18:14;55.60;;;9.93;;
59518;SDS011;46994;54.976;73.404;2022-09-03T10:23:34;62.63;;;11.52;;
59518;SDS011;46994;54.976;73.404;2022-09-03T10:26:09;73.88;;;11.40;;
59518;SDS011;46994;54.976;73.404;2022-09-03T10:28:40;96.32;;;12.90;;
59518;SDS011;46994;54.976;73.404;2022-09-03T10:33:57;92.55;;;14.60;;
59518;SDS011;46994;54.976;73.404;2022-09-03T10:37:17;91.53;;;12.82;;
59518;SDS011;46994;54.976;73.404;2022-09-03T10:39:24;80.82;;;12.20;;
59518;SDS011;46994;54.976;73.404;2022-09-03T10:45:06;90.20;;;17.17;;
59518;SDS011;46994;54.976;73.404;2022-09-03T10:47:56;79.65;;;14.68;;
59518;SDS011;46994;54.976;73.404;2022-09-03T11:02:28;83.63;;;18.58;;
59518;SDS011;46994;54.976;73.404;2022-09-03T11:08:26;75.60;;;15.95;;
59518;SDS011;46994;54.976;73.404;2022-09-03T11:11:04;63.90;;;17.02;;
59518;SDS011;46994;54.976;73.404;2022-09-03T11:13:34;88.75;;;16.00;;
59518;SDS011;46994;54.976;73.404;2022-09-03T11:16:10;81.45;;;19.08;;
59518;SDS011;46994;54.976;73.404;2022-09-03T11:18:53;59.42;;;18.20;;
59518;SDS011;46994;54.976;73.404;2022-09-03T11:21:23;69.07;;;17.77;;
59518;SDS011;46994;54.976;73.404;2022-09-03T11:23:58;73.68;;;16.65;;
59518;SDS011;46994;54.976;73.404;2022-09-03T11:30:11;140.65;;;17.55;;
59518;SDS011;46994;54.976;73.404;2022-09-03T11:32:42;44.72;;;13.18;;
59518;SDS011;46994;54.976;73.404;2022-09-03T11:35:16;57.65;;;15.13;;
59518;SDS011;46994;54.976;73.404;2022-09-03T11:37:54;87.80;;;15.43;;
59518;SDS011;46994;54.976;73.404;2022-09-03T11:40:58;64.25;;;14.45;;
59518;SDS011;46994;54.976;73.404;2022-09-03T11:43:29;64.93;;;14.80;;
59518;SDS011;46994;54.976;73.404;2022-09-03T11:46:01;65.95;;;14.65;;
59518;SDS011;46994;54.976;73.404;2022-09-03T11:53:54;35.40;;;10.90;;
59518;SDS011;46994;54.976;73.404;2022-09-03T11:56:23;36.05;;;10.70;;
59518;SDS011;46994;54.976;73.404;2022-09-03T11:59:02;48.20;;;11.48;;
59518;SDS011;46994;54.976;73.404;2022-09-03T12:01:41;41.00;;;11.07;;
59518;SDS011;46994;54.976;73.404;2022-09-03T12:04:15;47.17;;;11.38;;
59518;SDS011;46994;54.976;73.404;2022-09-03T12:12:26;34.35;;;11.52;;
59518;SDS011;46994;54.976;73.404;2022-09-03T12:15:45;49.72;;;11.50;;
59518;SDS011;46994;54.976;73.404;2022-09-03T12:18:27;90.57;;;11.88;;
59518;SDS011;46994;54.976;73.404;2022-09-03T12:26:18;66.63;;;12.60;;
59518;SDS011;46994;54.976;73.404;2022-09-03T12:29:17;48.17;;;12.65;;
59518;SDS011;46994;54.976;73.404;2022-09-03T12:31:51;33.58;;;12.68;;
59518;SDS011;46994;54.976;73.404;2022-09-03T12:34:22;63.85;;;13.20;;
59518;SDS011;46994;54.976;73.404;2022-09-03T12:36:52;64.97;;;14.27;;
59518;SDS011;46994;54.976;73.404;2022-09-03T12:39:24;103.72;;;14.15;;
59518;SDS011;46994;54.976;73.404;2022-09-03T12:41:59;73.17;;;13.53;;
59518;SDS011;46994;54.976;73.404;2022-09-03T12:49:38;46.70;;;17.08;;
59518;SDS011;46994;54.976;73.404;2022-09-03T12:52:13;79.78;;;12.85;;
59518;SDS011;46994;54.976;73.404;2022-09-03T12:54:47;91.47;;;13.75;;
59518;SDS011;46994;54.976;73.404;2022-09-03T12:57:33;82.75;;;14.57;;
59518;SDS011;46994;54.976;73.404;2022-09-03T13:00:08;47.22;;;18.02;;
59518;SDS011;46994;54.976;73.404;2022-09-03T13:02:44;53.38;;;14.38;;
59518;SDS011;46994;54.976;73.404;2022-09-03T13:05:18;59.60;;;13.15;;
59518;SDS011;46994;54.976;73.404;2022-09-03T13:07:49;66.60;;;13.20;;
59518;SDS011;46994;54.976;73.404;2022-09-03T13:12:57;59.95;;;12.63;;
59518;SDS011;46994;54.976;73.404;2022-09-03T13:15:25;53.03;;;13.00;;
59518;SDS011;46994;54.976;73.404;2022-09-03T13:21:02;67.38;;;12.68;;
59518;SDS011;46994;54.976;73.404;2022-09-03T13:23:42;54.28;;;13.25;;
59518;SDS011;46994;54.976;73.404;2022-09-03T13:26:50;73.18;;;14.13;;
59518;SDS011;46994;54.976;73.404;2022-09-03T13:29:23;50.03;;;12.40;;
59518;SDS011;46994;54.976;73.404;2022-09-03T13:32:07;42.35;;;13.88;;
59518;SDS011;46994;54.976;73.404;2022-09-03T13:34:50;50.17;;;13.38;;
59518;SDS011;46994;54.976;73.404;2022-09-03T13:39:58;75.28;;;15.20;;
59518;SDS011;46994;54.976;73.404;2022-09-03T13:42:42;52.88;;;15.43;;
59518;SDS011;46994;54.976;73.404;2022-09-03T13:48:14;73.28;;;13.85;;
59518;SDS011;46994;54.976;73.404;2022-09-03T13:53:46;67.63;;;14.95;;
59518;SDS011;46994;54.976;73.404;2022-09-03T13:56:59;105.57;;;14.75;;
59518;SDS011;46994;54.976;73.404;2022-09-03T13:59:19;53.25;;;14.05;;
59518;SDS011;46994;54.976;73.404;2022-09-03T14:16:11;49.03;;;14.80;;
59518;SDS011;46994;54.976;73.404;2022-09-03T14:18:50;58.60;;;12.05;;
59518;SDS011;46994;54.976;73.404;2022-09-03T14:21:24;79.15;;;14.20;;
59518;SDS011;46994;54.976;73.404;2022-09-03T14:24:21;55.58;;;13.43;;
59518;SDS011;46994;54.976;73.404;2022-09-03T14:26:55;59.83;;;13.73;;
59518;SDS011;46994;54.976;73.404;2022-09-03T14:29:27;51.22;;;14.48;;
59518;SDS011;46994;54.976;73.404;2022-09-03T14:48:50;70.35;;;11.77;;
59518;SDS011;46994;54.976;73.404;2022-09-03T15:00:07;64.15;;;12.95;;
59518;SDS011;46994;54.976;73.404;2022-09-03T15:06:21;49.40;;;12.27;;
59518;SDS011;46994;54.976;73.404;2022-09-03T15:09:10;63.33;;;12.83;;
59518;SDS011;46994;54.976;73.404;2022-09-03T15:11:56;56.95;;;11.65;;
59518;SDS011;46994;54.976;73.404;2022-09-03T15:17:25;88.82;;;13.10;;
59518;SDS011;46994;54.976;73.404;2022-09-03T15:23:16;62.83;;;13.88;;
59518;SDS011;46994;54.976;73.404;2022-09-03T15:31:46;66.18;;;11.68;;
59518;SDS011;46994;54.976;73.404;2022-09-03T15:37:27;39.22;;;10.38;;
59518;SDS011;46994;54.976;73.404;2022-09-03T15:42:46;98.53;;;13.13;;
59518;SDS011;46994;54.976;73.404;2022-09-03T15:45:20;58.75;;;10.50;;
59518;SDS011;46994;54.976;73.404;2022-09-03T15:48:09;159.05;;;11.98;;
59518;SDS011;46994;54.976;73.404;2022-09-03T15:53:29;46.20;;;9.88;;
59518;SDS011;46994;54.976;73.404;2022-09-03T16:06:48;49.70;;;17.42;;
59518;SDS011;46994;54.976;73.404;2022-09-03T16:09:25;50.95;;;12.00;;
59518;SDS011;46994;54.976;73.404;2022-09-03T16:14:52;57.78;;;12.57;;
59518;SDS011;46994;54.976;73.404;2022-09-03T16:23:22;74.35;;;10.60;;
59518;SDS011;46994;54.976;73.404;2022-09-03T16:29:08;38.85;;;11.50;;
59518;SDS011;46994;54.976;73.404;2022-09-03T16:37:25;90.35;;;10.38;;
59518;SDS011;46994;54.976;73.404;2022-09-03T16:42:57;58.95;;;8.43;;
59518;SDS011;46994;54.976;73.404;2022-09-03T16:54:31;60.80;;;9.82;;
59518;SDS011;46994;54.976;73.404;2022-09-03T16:57:17;97.00;;;12.32;;
59518;SDS011;46994;54.976;73.404;2022-09-03T17:00:03;95.82;;;9.35;;
59518;SDS011;46994;54.976;73.404;2022-09-03T17:02:47;68.95;;;12.48;;
59518;SDS011;46994;54.976;73.404;2022-09-03T17:11:38;106.57;;;11.60;;
59518;SDS011;46994;54.976;73.404;2022-09-03T17:19:44;93.45;;;9.43;;
59518;SDS011;46994;54.976;73.404;2022-09-03T17:25:39;66.93;;;8.98;;
59518;SDS011;46994;54.976;73.404;2022-09-03T17:28:31;82.20;;;10.00;;
59518;SDS011;46994;54.976;73.404;2022-09-03T17:31:10;73.97;;;9.23;;
59518;SDS011;46994;54.976;73.404;2022-09-03T17:34:01;71.97;;;8.75;;
59518;SDS011;46994;54.976;73.404;2022-09-03T17:36:35;46.67;;;9.20;;
59518;SDS011;46994;54.976;73.404;2022-09-03T17:41:47;91.75;;;8.50;;
59518;SDS011;46994;54.976;73.404;2022-09-03T17:50:05;35.50;;;9.80;;
59518;SDS011;46994;54.976;73.404;2022-09-03T17:52:37;52.95;;;9.82;;
59518;SDS011;46994;54.976;73.404;2022-09-03T17:55:23;57.55;;;9.20;;
59518;SDS011;46994;54.976;73.404;2022-09-03T18:01:01;44.92;;;9.13;;
59518;SDS011;46994;54.976;73.404;2022-09-03T18:08:55;41.75;;;9.68;;
59518;SDS011;46994;54.976;73.404;2022-09-03T18:14:33;100.38;;;11.68;;
59518;SDS011;46994;54.976;73.404;2022-09-03T18:17:27;80.35;;;10.23;;
59518;SDS011;46994;54.976;73.404;2022-09-03T18:20:07;107.72;;;11.45;;
59518;SDS011;46994;54.976;73.404;2022-09-03T18:25:59;52.97;;;15.73;;
59518;SDS011;46994;54.976;73.404;2022-09-03T18:31:37;51.53;;;22.23;;
59518;SDS011;46994;54.976;73.404;2022-09-03T18:34:27;219.23;;;22.77;;
59518;SDS011;46994;54.976;73.404;2022-09-03T18:37:22;326.60;;;28.02;;
59518;SDS011;46994;54.976;73.404;2022-09-03T18:40:11;276.35;;;30.77;;
59518;SDS011;46994;54.976;73.404;2022-09-03T18:43:22;190.10;;;30.20;;
59518;SDS011;46994;54.976;73.404;2022-09-03T18:49:46;168.60;;;26.73;;
59518;SDS011;46994;54.976;73.404;2022-09-03T18:53:01;187.85;;;24.67;;
59518;SDS011;46994;54.976;73.404;2022-09-03T19:24:00;160.70;;;15.40;;
59518;SDS011;46994;54.976;73.404;2022-09-03T19:26:57;125.45;;;17.38;;
59518;SDS011;46994;54.976;73.404;2022-09-03T19:30:08;126.93;;;13.85;;
59518;SDS011;46994;54.976;73.404;2022-09-03T19:45:16;33.00;;;7.50;;
59518;SDS011;46994;54.976;73.404;2022-09-03T19:48:33;37.05;;;7.25;;
59518;SDS011;46994;54.976;73.404;2022-09-03T19:54:35;29.60;;;5.22;;
59518;SDS011;46994;54.976;73.404;2022-09-03T19:57:21;40.25;;;6.43;;
59518;SDS011;46994;54.976;73.404;2022-09-03T20:00:08;39.30;;;6.10;;
59518;SDS011;46994;54.976;73.404;2022-09-03T20:02:54;35.33;;;5.03;;
59518;SDS011;46994;54.976;73.404;2022-09-03T20:05:39;39.55;;;8.07;;
59518;SDS011;46994;54.976;73.404;2022-09-03T20:08:25;34.40;;;4.88;;
59518;SDS011;46994;54.976;73.404;2022-09-03T20:11:13;15.80;;;4.82;;
59518;SDS011;46994;54.976;73.404;2022-09-03T20:13:43;24.23;;;5.33;;
59518;SDS011;46994;54.976;73.404;2022-09-03T20:21:51;33.15;;;8.63;;
59518;SDS011;46994;54.976;73.404;2022-09-03T20:30:04;16.80;;;5.35;;
59518;SDS011;46994;54.976;73.404;2022-09-03T20:32:36;17.50;;;7.45;;
59518;SDS011;46994;54.976;73.404;2022-09-03T20:35:28;43.70;;;8.25;;
59518;SDS011;46994;54.976;73.404;2022-09-03T20:38:41;41.67;;;8.85;;
59518;SDS011;46994;54.976;73.404;2022-09-03T20:41:22;57.80;;;9.80;;
59518;SDS011;46994;54.976;73.404;2022-09-03T20:46:48;38.65;;;8.55;;
59518;SDS011;46994;54.976;73.404;2022-09-03T20:51:50;33.08;;;8.63;;
59518;SDS011;46994;54.976;73.404;2022-09-03T20:54:37;29.95;;;7.28;;
59518;SDS011;46994;54.976;73.404;2022-09-03T21:00:09;23.30;;;6.38;;
59518;SDS011;46994;54.976;73.404;2022-09-03T21:08:09;29.98;;;7.53;;
59518;SDS011;46994;54.976;73.404;2022-09-03T21:22:11;10.80;;;5.68;;
59518;SDS011;46994;54.976;73.404;2022-09-03T21:24:41;10.63;;;4.03;;